Terminal Aerodrome Forecast
Issued by NWS Melbourne, FL

Home | Current Version | Previous Version | Text Only | Print | Product List | Glossary On
Versions: 1 2 3 4 5 6 7 8 9 10 11 12 13 14 15 16
000
FTUS42 KMLB 280536
TAFDAB
TAF
KDAB 280536Z 2806/2906 VRB03KT P6SM FEW030 FEW250
     FM281400 24006KT P6SM SCT025
     FM281900 26007KT P6SM VCTS SCT035CB BKN250
     FM290100 24003KT P6SM SCT060 BKN120=

USA.gov is the U.S. government's official web portal to all federal, state and local government web resources and services.